Frankfort, Illinois
Current Conditions -  °F | °C
As of 10:55 AM on Wednesday 22 Oct 2014 (Local Time) from KLOT Reporting Station
Clear Clear  
Wind Chill: 50°   Ceiling: Unl
Heat Index: 50°   Visibility: 10mi
Dew Point: 37°   Wind: 3mph
Humidity: 61%   Direction: 140°SE
Pressure: 30.37"   Gusts: NA
Location:  41.5°N, 87.86°W
Report Text: KLOT 221555Z AUTO 14003KT 10SM CLR 10/03 A3037 RMK AO2 T01010029
Loading
Personal Weather Stations






























Interactive Weather Map
Tropical Storm Tracking
New forecast layout! Learn more

10-Day Weather Forecast

Advertisements
Track Severe Weather on mobile